Time;durP1;ratioP1;P1;durP2;ratioP2;P2;SDS_P1;SDS_P2;PMS_P1;PMS_P2;Temp;Humidity;BMP_temperature;BMP_pressure;BME280_temperature;BME280_humidity;BME280_pressure;Samples;Min_cycle;Max_cycle;Signal;HPM_P1;HPM_P2
2022/08/31 00:04:01;;;;;;;0.43;0.30;;;16.00;99.90;;;;;;4931535;29;20079;-91
2022/08/31 00:06:30;;;;;;;0.50;0.32;;;16.00;99.90;;;;;;4921038;29;20487;-92
2022/08/31 00:08:57;;;;;;;0.65;0.35;;;16.00;99.90;;;;;;4919339;29;20047;-90
2022/08/31 00:11:29;;;;;;;0.73;0.40;;;15.90;99.90;;;;;;4918695;29;20054;-91
2022/08/31 00:14:02;;;;;;;0.60;0.45;;;15.90;99.90;;;;;;4923912;28;20051;-90
2022/08/31 00:16:33;;;;;;;1.35;0.70;;;15.90;99.90;;;;;;4919139;29;20058;-92
2022/08/31 00:19:01;;;;;;;2.17;0.65;;;15.90;99.90;;;;;;4918511;29;20055;-90
2022/08/31 00:21:28;;;;;;;0.77;0.40;;;15.90;99.90;;;;;;4918205;29;20483;-91
2022/08/31 00:23:55;;;;;;;0.50;0.30;;;15.80;99.90;;;;;;4917137;29;20066;-91
2022/08/31 00:26:22;;;;;;;0.65;0.38;;;15.80;99.90;;;;;;4920095;29;20058;-93
2022/08/31 00:28:49;;;;;;;0.70;0.47;;;15.80;99.90;;;;;;4923181;29;20059;-90
2022/08/31 00:31:19;;;;;;;0.60;0.40;;;15.80;99.90;;;;;;4921734;29;20055;-92
2022/08/31 00:33:51;;;;;;;1.30;0.52;;;15.80;99.90;;;;;;4917739;28;20561;-92
2022/08/31 00:36:22;;;;;;;2.03;0.55;;;15.80;99.90;;;;;;4917145;29;20450;-92
2022/08/31 00:38:49;;;;;;;0.30;0.30;;;15.80;99.90;;;;;;4915628;29;20056;-93
2022/08/31 00:41:18;;;;;;;0.60;0.50;;;15.80;99.90;;;;;;4914968;29;20067;-90
2022/08/31 00:43:49;;;;;;;0.70;0.40;;;15.70;99.90;;;;;;4925922;28;20282;-90
2022/08/31 00:46:25;;;;;;;1.25;0.63;;;15.80;99.90;;;;;;4924264;29;20055;-90
2022/08/31 00:49:01;;;;;;;0.95;0.47;;;15.70;99.90;;;;;;4916464;29;20059;-90
2022/08/31 00:51:29;;;;;;;0.73;0.50;;;15.70;99.90;;;;;;4916382;29;20125;-90
2022/08/31 00:53:56;;;;;;;0.45;0.40;;;15.70;99.90;;;;;;4921951;28;20442;-90
2022/08/31 00:56:23;;;;;;;0.30;0.30;;;15.70;99.90;;;;;;4934965;28;20109;-90
2022/08/31 00:58:50;;;;;;;0.60;0.50;;;15.60;99.90;;;;;;4934829;28;20415;-92
2022/08/31 01:01:21;;;;;;;0.68;0.52;;;15.60;99.90;;;;;;4935275;28;20409;-90
2022/08/31 01:03:48;;;;;;;0.98;0.77;;;15.60;99.90;;;;;;4929859;29;20055;-89
2022/08/31 01:06:16;;;;;;;0.63;0.55;;;15.50;99.90;;;;;;4916050;29;20051;-90
2022/08/31 01:08:44;;;;;;;0.80;0.43;;;15.50;99.90;;;;;;4913064;29;20055;-90
2022/08/31 01:11:11;;;;;;;0.40;0.40;;;15.50;99.90;;;;;;4913034;29;20051;-91
2022/08/31 01:13:38;;;;;;;0.68;0.50;;;15.40;99.90;;;;;;4923520;29;20055;-92
2022/08/31 01:16:12;;;;;;;1.38;0.55;;;15.50;99.90;;;;;;4920942;29;20482;-91
2022/08/31 01:18:39;;;;;;;0.75;0.60;;;15.40;99.90;;;;;;4918617;29;20050;-91
2022/08/31 01:21:27;;;;;;;1.35;0.73;;;15.40;99.90;;;;;;4918860;29;20051;-91
2022/08/31 01:23:59;;;;;;;1.88;0.60;;;15.40;99.90;;;;;;4935736;29;20075;-91
2022/08/31 01:26:28;;;;;;;1.38;0.75;;;15.40;99.90;;;;;;4917304;29;20055;-92
2022/08/31 01:28:58;;;;;;;1.30;0.80;;;15.40;99.90;;;;;;4913784;29;20118;-92
2022/08/31 06:09:53;;;;;;;1.00;0.70;;;15.60;99.90;;;;;;6017772;23;20250;31
2022/08/31 06:12:24;;;;;;;1.00;0.43;;;15.50;99.90;;;;;;4874165;29;20151;-83
2022/08/31 06:14:52;;;;;;;1.38;0.70;;;15.50;99.90;;;;;;4871332;29;20084;-84
2022/08/31 06:17:20;;;;;;;0.68;0.60;;;15.50;99.90;;;;;;4876822;29;20048;-84
2022/08/31 06:19:48;;;;;;;1.25;0.70;;;15.60;99.90;;;;;;4895005;29;20132;-83
2022/08/31 06:22:16;;;;;;;1.70;0.80;;;15.60;99.90;;;;;;4861990;29;20393;-83
2022/08/31 06:24:43;;;;;;;0.75;0.75;;;15.70;99.90;;;;;;4869929;29;20049;-84
2022/08/31 06:27:10;;;;;;;1.25;0.70;;;15.70;99.90;;;;;;4875293;29;20127;-84
2022/08/31 06:29:37;;;;;;;1.60;1.00;;;15.80;99.90;;;;;;4857579;29;20060;-81
2022/08/31 06:32:08;;;;;;;1.80;0.88;;;15.80;99.90;;;;;;4859576;29;20144;-84
2022/08/31 06:34:36;;;;;;;0.80;0.70;;;15.90;99.90;;;;;;4862774;29;20108;-82
2022/08/31 06:37:03;;;;;;;0.90;0.65;;;15.90;99.90;;;;;;4862533;29;20060;-82
2022/08/31 06:39:30;;;;;;;0.88;0.60;;;16.00;99.90;;;;;;4879058;29;20057;-83
2022/08/31 06:41:57;;;;;;;1.25;0.70;;;16.00;99.90;;;;;;4860373;29;20128;-83
2022/08/31 06:44:24;;;;;;;1.33;0.90;;;16.10;99.90;;;;;;4841316;29;20881;-84
2022/08/31 06:46:51;;;;;;;0.60;0.50;;;16.10;99.90;;;;;;4874515;29;20136;-83
2022/08/31 06:49:19;;;;;;;1.52;0.90;;;16.20;99.90;;;;;;4862786;29;20060;-86
2022/08/31 06:51:46;;;;;;;0.75;0.55;;;16.30;99.90;;;;;;4872125;29;20112;-83
2022/08/31 06:54:13;;;;;;;0.95;0.70;;;16.30;99.90;;;;;;4859402;29;20110;-83
2022/08/31 06:56:57;;;;;;;1.95;0.95;;;16.40;99.90;;;;;;4878957;29;20044;-82
2022/08/31 06:59:24;;;;;;;1.65;0.68;;;16.50;99.90;;;;;;4879052;29;20496;-83
2022/08/31 07:01:54;;;;;;;1.50;0.90;;;16.60;99.90;;;;;;4876367;29;20056;-84
2022/08/31 07:04:21;;;;;;;1.02;0.63;;;16.70;99.90;;;;;;4883914;29;20155;-84
2022/08/31 07:06:48;;;;;;;1.77;1.15;;;16.80;99.90;;;;;;4878566;29;20094;-83
2022/08/31 07:09:17;;;;;;;1.55;1.23;;;16.80;99.90;;;;;;4881280;29;20554;-84
2022/08/31 07:11:45;;;;;;;1.73;1.10;;;16.90;99.90;;;;;;4855925;29;20337;-83
2022/08/31 07:14:14;;;;;;;0.68;0.57;;;16.90;99.90;;;;;;4870450;29;20136;-83
2022/08/31 07:16:42;;;;;;;0.95;0.70;;;17.00;99.90;;;;;;4855839;29;20049;-82
2022/08/31 07:19:09;;;;;;;1.75;0.60;;;17.00;99.90;;;;;;4865979;29;20060;-83
2022/08/31 07:21:44;;;;;;;1.20;0.75;;;17.00;99.90;;;;;;4861751;29;20124;-79
2022/08/31 07:24:12;;;;;;;1.05;0.73;;;17.10;99.90;;;;;;4848181;29;20060;-80
2022/08/31 07:26:45;;;;;;;2.25;1.10;;;17.20;99.90;;;;;;4871804;29;20105;-80
2022/08/31 07:29:13;;;;;;;;;;;17.20;99.90;;;;;;4865475;29;20079;-79
2022/08/31 07:31:47;;;;;;;1.38;0.70;;;17.20;99.90;;;;;;4880397;29;20022;-79
2022/08/31 07:34:26;;;;;;;;;;;17.30;99.90;;;;;;4878242;29;20053;-83
2022/08/31 07:42:53;;;;;;;1.38;0.73;;;17.40;99.90;;;;;;4877891;29;20143;-82
2022/08/31 07:45:21;;;;;;;1.55;0.80;;;17.60;99.90;;;;;;4862057;29;20136;-80
2022/08/31 07:47:52;;;;;;;1.20;0.50;;;17.70;99.90;;;;;;4844104;29;20064;-82
2022/08/31 07:50:19;;;;;;;1.17;0.70;;;17.80;99.90;;;;;;4870914;29;20584;-83
2022/08/31 07:52:50;;;;;;;1.27;0.88;;;17.90;99.90;;;;;;4861216;29;20063;-84
2022/08/31 07:55:18;;;;;;;0.82;0.60;;;18.00;99.90;;;;;;4862129;29;20057;-84
2022/08/31 07:57:45;;;;;;;2.20;0.93;;;18.00;99.90;;;;;;4892091;29;20048;-84
2022/08/31 08:00:13;;;;;;;1.45;0.70;;;18.10;99.90;;;;;;4874962;29;20394;-80
2022/08/31 08:02:44;;;;;;;1.58;0.90;;;18.20;99.90;;;;;;4889591;29;20056;-81
2022/08/31 08:05:21;;;;;;;1.05;0.70;;;18.30;99.90;;;;;;4855387;29;20398;-82
2022/08/31 08:07:54;;;;;;;1.65;1.00;;;18.50;99.90;;;;;;4871643;29;20053;-81
2022/08/31 08:10:22;;;;;;;0.70;0.68;;;18.60;99.90;;;;;;4857640;29;20262;-81
2022/08/31 08:12:54;;;;;;;2.05;0.70;;;18.80;99.90;;;;;;4871988;29;20428;-81
2022/08/31 08:15:23;;;;;;;0.80;0.60;;;19.00;99.90;;;;;;4854957;29;20049;-81
2022/08/31 08:17:50;;;;;;;1.95;0.95;;;19.10;99.90;;;;;;4847358;29;20056;-81
2022/08/31 08:20:17;;;;;;;0.90;0.70;;;19.10;99.90;;;;;;4865691;29;20063;-83
2022/08/31 08:22:59;;;;;;;3.47;0.70;;;19.30;99.90;;;;;;4873809;29;20494;-83
2022/08/31 08:25:26;;;;;;;2.42;1.02;;;19.30;99.90;;;;;;4891987;29;20062;-81
2022/08/31 08:27:54;;;;;;;2.35;0.88;;;19.30;99.90;;;;;;4877311;29;20144;-82
2022/08/31 08:30:20;;;;;;;1.52;0.90;;;19.40;99.90;;;;;;4885242;29;20076;-83
2022/08/31 08:32:48;;;;;;;2.05;0.90;;;19.40;99.90;;;;;;4876339;29;20052;-83
2022/08/31 08:35:15;;;;;;;1.00;0.85;;;19.50;99.90;;;;;;4877506;29;20465;-83
2022/08/31 08:37:42;;;;;;;2.60;1.00;;;19.60;99.90;;;;;;4856664;29;20447;-84
2022/08/31 08:40:35;;;;;;;1.77;1.00;;;19.70;99.90;;;;;;4887109;29;20065;-83
2022/08/31 08:43:04;;;;;;;1.40;0.70;;;19.80;99.90;;;;;;4860961;29;20045;-82
2022/08/31 08:45:31;;;;;;;1.20;0.80;;;19.90;99.90;;;;;;4884342;29;20048;-83
2022/08/31 08:47:58;;;;;;;1.25;0.57;;;20.00;99.90;;;;;;4864843;29;20053;-82
2022/08/31 08:50:26;;;;;;;2.40;0.60;;;20.20;99.90;;;;;;4851863;29;20164;-84
2022/08/31 08:52:55;;;;;;;1.67;0.80;;;20.40;99.90;;;;;;4857711;29;20057;-84
2022/08/31 08:55:27;;;;;;;1.45;0.75;;;20.40;99.90;;;;;;4853255;29;20485;-84
2022/08/31 08:57:54;;;;;;;0.77;0.50;;;20.40;99.90;;;;;;4855249;29;20049;-84
2022/08/31 09:00:24;;;;;;;1.00;0.70;;;20.50;99.90;;;;;;4856465;29;20108;-84
2022/08/31 09:03:00;;;;;;;0.55;0.50;;;20.60;99.90;;;;;;4857013;29;20118;-84
2022/08/31 09:05:45;;;;;;;0.63;0.60;;;20.60;99.90;;;;;;4863411;29;20060;-84
2022/08/31 09:08:26;;;;;;;1.45;0.80;;;20.60;99.90;;;;;;4871852;29;20053;-84
2022/08/31 09:56:42;;;;;;;1.15;0.60;;;21.90;99.90;;;;;;4605031;31;20058;-82
2022/08/31 10:19:41;;;;;;;;;;;;;;;;;;;;;
2022/08/31 10:29:50;;;;;;;1.55;0.77;;;22.90;99.90;;;;;;4800393;29;19966;-83
2022/08/31 10:37:47;;;;;;;;;;;;;;;;;;;;;
2022/08/31 10:49:49;;;;;;;1.13;0.52;;;22.60;99.90;;;;;;4719799;30;20110;-85
2022/08/31 12:01:33;;;;;;;1.33;0.80;;;25.60;99.30;;;;;;6204403;22;1421990;-89
2022/08/31 12:04:02;;;;;;;1.17;0.90;;;25.70;99.00;;;;;;6236507;23;20059;-91
2022/08/31 12:06:36;;;;;;;0.70;0.70;;;26.10;98.00;;;;;;6192933;23;20020;-92
2022/08/31 12:09:21;;;;;;;1.25;0.70;;;26.30;97.80;;;;;;6240923;23;20039;-85
2022/08/31 12:11:52;;;;;;;2.45;0.80;;;26.70;97.50;;;;;;6242594;23;20035;-85
2022/08/31 12:14:28;;;;;;;1.52;0.65;;;26.90;97.30;;;;;;6242881;23;20273;-85
2022/08/31 12:17:23;;;;;;;0.93;0.68;;;27.20;96.80;;;;;;6189895;23;20338;-81
2022/08/31 12:19:59;;;;;;;1.15;0.80;;;27.30;95.50;;;;;;6214882;23;20070;-82
2022/08/31 12:25:47;;;;;;;1.00;0.80;;;26.50;95.40;;;;;;6243208;23;20058;-82
2022/08/31 12:28:44;;;;;;;0.75;0.45;;;26.40;95.70;;;;;;6242055;23;20074;-86
2022/08/31 12:31:15;;;;;;;0.60;0.50;;;26.10;95.40;;;;;;6240212;23;20031;-87
2022/08/31 12:34:06;;;;;;;1.13;0.70;;;26.30;95.80;;;;;;6191739;23;20368;-83
2022/08/31 12:36:34;;;;;;;1.25;0.82;;;26.50;95.40;;;;;;6214441;23;20056;-86
2022/08/31 12:39:08;;;;;;;1.20;0.65;;;27.00;95.10;;;;;;6215894;23;20542;-91
2022/08/31 12:41:55;;;;;;;0.73;0.45;;;27.40;93.90;;;;;;6243322;23;20524;-87
2022/08/31 12:44:49;;;;;;;0.40;0.40;;;27.70;93.90;;;;;;6190894;23;20026;-89
2022/08/31 12:47:16;;;;;;;1.85;0.40;;;28.00;94.50;;;;;;6219873;23;20020;-83
2022/08/31 12:49:52;;;;;;;0.38;0.32;;;28.00;92.80;;;;;;6214743;23;20086;-82
2022/08/31 12:52:40;;;;;;;1.13;0.70;;;28.10;93.10;;;;;;6203416;23;20149;-90
2022/08/31 12:55:27;;;;;;;0.30;0.20;;;28.50;92.20;;;;;;6158791;23;20485;-88
2022/08/31 12:58:08;;;;;;;0.60;0.20;;;28.60;91.80;;;;;;6181926;23;20032;-89
2022/08/31 13:00:38;;;;;;;0.75;0.43;;;28.40;91.10;;;;;;6180428;23;20024;-87
2022/08/31 13:03:16;;;;;;;0.80;0.43;;;27.90;91.30;;;;;;6156960;23;20115;-90
2022/08/31 13:05:57;;;;;;;0.30;0.30;;;27.70;91.40;;;;;;6157696;23;20079;-91
2022/08/31 13:08:24;;;;;;;0.38;0.30;;;27.40;91.50;;;;;;6162771;23;20086;-87
2022/08/31 13:10:51;;;;;;;0.57;0.47;;;27.00;92.30;;;;;;6153320;23;20024;-83
2022/08/31 13:13:25;;;;;;;0.60;0.60;;;26.60;91.80;;;;;;6178826;23;20479;-81
2022/08/31 13:15:58;;;;;;;0.32;0.32;;;26.80;91.90;;;;;;6152432;23;20552;-83
2022/08/31 13:18:26;;;;;;;0.47;0.40;;;26.90;91.70;;;;;;6157505;23;20029;-88
2022/08/31 13:20:55;;;;;;;0.50;0.40;;;26.50;91.40;;;;;;6159162;23;20044;-89
2022/08/31 13:23:30;;;;;;;1.17;0.68;;;26.50;91.50;;;;;;6205216;23;20048;-92
2022/08/31 13:26:21;;;;;;;1.00;0.47;;;26.10;91.40;;;;;;6177047;23;20340;-84
2022/08/31 13:28:54;;;;;;;1.35;0.30;;;26.10;91.20;;;;;;6203716;23;20025;-95
2022/08/31 13:31:23;;;;;;;;;;;26.20;91.20;;;;;;6168845;23;20102;-82
2022/08/31 13:33:51;;;;;;;1.38;0.80;;;26.30;91.00;;;;;;6182492;23;20782;-81
2022/08/31 13:36:31;;;;;;;0.57;0.50;;;26.80;91.00;;;;;;6162445;23;20351;-82
2022/08/31 13:39:01;;;;;;;1.48;0.60;;;27.20;90.90;;;;;;6183119;23;20025;-82
2022/08/31 13:41:36;;;;;;;0.43;0.40;;;27.00;90.10;;;;;;6156143;23;20460;-83
2022/08/31 13:44:05;;;;;;;0.38;0.35;;;27.30;88.70;;;;;;6159255;23;20059;-82
2022/08/31 13:46:35;;;;;;;0.85;0.50;;;27.50;88.30;;;;;;6155577;23;20046;-85
2022/08/31 13:49:28;;;;;;;1.83;0.57;;;27.40;88.20;;;;;;6162864;23;20017;-84
2022/08/31 13:51:55;;;;;;;0.38;0.38;;;27.90;88.00;;;;;;6161685;23;20103;-85
2022/08/31 13:54:30;;;;;;;0.40;0.40;;;28.70;87.90;;;;;;6159599;23;20540;-89
2022/08/31 13:57:29;;;;;;;0.70;0.52;;;28.90;86.80;;;;;;6184633;23;20017;-91
2022/08/31 14:00:22;;;;;;;;;;;29.10;86.70;;;;;;6197203;23;20029;-92
2022/08/31 14:02:49;;;;;;;0.70;0.55;;;28.80;87.20;;;;;;6186321;23;19932;-90
2022/08/31 14:05:31;;;;;;;0.30;0.30;;;28.70;87.70;;;;;;6175243;23;20021;-94
2022/08/31 14:08:02;;;;;;;1.42;0.52;;;28.40;87.10;;;;;;6164328;23;20047;-95
2022/08/31 14:10:42;;;;;;;0.70;0.68;;;28.30;88.10;;;;;;6167980;23;20476;-95
2022/08/31 14:13:12;;;;;;;2.20;1.50;;;28.70;87.60;;;;;;6157019;23;20043;-92
2022/08/31 14:15:41;;;;;;;0.90;0.60;;;28.90;86.80;;;;;;6184413;23;20021;-95
2022/08/31 14:18:25;;;;;;;0.73;0.70;;;29.10;86.50;;;;;;6158157;23;20017;-92
2022/08/31 14:21:05;;;;;;;1.35;0.50;;;29.20;85.60;;;;;;6160831;23;20460;-89
2022/08/31 14:24:00;;;;;;;0.75;0.50;;;29.10;86.50;;;;;;6182138;23;20029;-89
2022/08/31 14:26:41;;;;;;;0.75;0.50;;;28.90;85.10;;;;;;6158161;23;20098;-90
2022/08/31 14:29:13;;;;;;;0.98;0.70;;;29.00;85.20;;;;;;6156748;23;20055;-89
2022/08/31 14:31:42;;;;;;;0.47;0.47;;;29.30;85.40;;;;;;6154581;23;20024;-89
2022/08/31 14:34:33;;;;;;;1.13;0.60;;;29.40;84.70;;;;;;6179804;23;20024;-91
2022/08/31 14:37:07;;;;;;;0.70;0.43;;;29.80;83.80;;;;;;6155271;23;20379;-88
2022/08/31 14:39:44;;;;;;;0.55;0.47;;;30.00;82.80;;;;;;6155820;23;20029;-92
2022/08/31 14:42:17;;;;;;;1.75;0.40;;;30.00;82.50;;;;;;6155193;23;20117;-88
2022/08/31 14:44:57;;;;;;;0.60;0.40;;;30.30;83.30;;;;;;6154932;23;20042;-91
2022/08/31 14:47:26;;;;;;;0.38;0.38;;;30.40;83.30;;;;;;6152192;23;20451;-87
2022/08/31 14:49:57;;;;;;;1.13;0.40;;;30.60;83.00;;;;;;6154395;23;20040;-87
2022/08/31 14:52:27;;;;;;;0.60;0.40;;;30.20;82.40;;;;;;6154937;23;20031;-87
2022/08/31 14:55:01;;;;;;;0.63;0.50;;;30.20;82.40;;;;;;6156969;23;20020;-87
2022/08/31 14:57:29;;;;;;;0.60;0.40;;;30.50;82.10;;;;;;6156887;23;20025;-93
2022/08/31 14:59:59;;;;;;;0.60;0.55;;;30.50;81.30;;;;;;6153071;23;20401;-84
2022/08/31 15:02:32;;;;;;;0.82;0.60;;;30.50;80.80;;;;;;6150100;23;20024;-91
2022/08/31 15:05:03;;;;;;;0.65;0.50;;;30.40;81.30;;;;;;6152749;23;20238;-86
2022/08/31 15:07:33;;;;;;;0.93;0.68;;;30.50;81.30;;;;;;6175018;23;20088;-82
2022/08/31 15:10:00;;;;;;;0.98;0.65;;;30.40;79.40;;;;;;6175458;23;20025;-85
2022/08/31 15:12:27;;;;;;;1.10;0.68;;;30.70;79.80;;;;;;6178079;23;20031;-87
2022/08/31 15:14:58;;;;;;;0.90;0.80;;;30.70;80.00;;;;;;6176192;23;20196;-87
2022/08/31 15:17:26;;;;;;;1.10;0.97;;;31.10;79.20;;;;;;6175820;23;20031;-84
2022/08/31 15:19:54;;;;;;;0.60;0.50;;;31.20;77.80;;;;;;6152246;23;20352;-84
2022/08/31 15:22:24;;;;;;;0.80;0.70;;;31.10;78.50;;;;;;6175821;23;20020;-83
2022/08/31 15:24:52;;;;;;;0.68;0.60;;;31.20;77.90;;;;;;6177195;23;20046;-82
2022/08/31 15:27:19;;;;;;;0.80;0.40;;;31.20;77.90;;;;;;6177032;23;20029;-84
2022/08/31 15:29:48;;;;;;;0.32;0.30;;;31.20;77.50;;;;;;6175237;23;20401;-84
2022/08/31 15:32:15;;;;;;;0.40;0.30;;;31.20;77.90;;;;;;6179677;23;20024;-87
2022/08/31 15:34:56;;;;;;;0.40;0.38;;;31.20;78.40;;;;;;6180198;23;20024;-89
2022/08/31 15:37:26;;;;;;;0.60;0.50;;;31.20;78.00;;;;;;6178629;23;20029;-85
2022/08/31 15:39:58;;;;;;;0.57;0.40;;;30.60;78.20;;;;;;6155277;23;20025;-85
2022/08/31 15:42:25;;;;;;;0.68;0.43;;;30.70;78.10;;;;;;6152401;23;20074;-84
2022/08/31 15:44:59;;;;;;;1.33;0.50;;;30.70;78.20;;;;;;6152385;23;20484;-84
2022/08/31 15:50:20;;;;;;;1.77;0.40;;;30.90;77.40;;;;;;6179030;23;20059;-85
2022/08/31 15:52:47;;;;;;;0.63;0.55;;;30.70;77.70;;;;;;6175988;23;20032;-85
2022/08/31 15:55:20;;;;;;;0.22;0.22;;;30.90;77.80;;;;;;6176862;23;20146;-85
2022/08/31 15:57:47;;;;;;;0.63;0.60;;;31.30;77.70;;;;;;6153911;23;20020;-85
2022/08/31 16:00:15;;;;;;;0.65;0.50;;;31.80;77.20;;;;;;6152628;23;20068;-85
2022/08/31 16:02:42;;;;;;;1.55;0.43;;;31.70;76.90;;;;;;6151570;23;20324;-86
2022/08/31 16:05:09;;;;;;;0.68;0.40;;;31.70;77.10;;;;;;6153622;23;20216;-87
2022/08/31 16:07:37;;;;;;;1.55;0.50;;;32.00;76.10;;;;;;6176763;23;20467;-83
2022/08/31 16:10:11;;;;;;;0.88;0.40;;;31.90;76.00;;;;;;6176122;23;20078;-85
2022/08/31 16:12:42;;;;;;;2.08;0.32;;;31.50;76.20;;;;;;6178740;23;20024;-87
2022/08/31 16:15:10;;;;;;;0.35;0.35;;;31.50;76.10;;;;;;6175519;23;20024;-83
2022/08/31 16:17:39;;;;;;;0.43;0.40;;;31.60;76.30;;;;;;6175646;23;20027;-83
2022/08/31 16:20:10;;;;;;;0.50;0.35;;;31.70;76.40;;;;;;6200942;23;20079;-84
2022/08/31 16:22:37;;;;;;;0.50;0.50;;;31.70;76.00;;;;;;6150872;23;20032;-83
2022/08/31 16:25:05;;;;;;;0.75;0.73;;;31.60;77.30;;;;;;6177311;23;20032;-85
2022/08/31 16:27:35;;;;;;;0.40;0.40;;;32.20;76.30;;;;;;6204138;23;20027;-83
2022/08/31 16:30:03;;;;;;;0.50;0.40;;;32.60;75.80;;;;;;6177109;23;20387;-83
2022/08/31 16:32:30;;;;;;;0.35;0.30;;;31.80;75.70;;;;;;6178892;23;20590;-90
2022/08/31 16:34:57;;;;;;;0.40;0.40;;;31.80;76.10;;;;;;6179005;23;20055;-88
2022/08/31 16:37:24;;;;;;;2.22;0.68;;;31.50;76.80;;;;;;6205392;23;20094;-87
2022/08/31 16:39:51;;;;;;;0.35;0.30;;;31.10;77.20;;;;;;6156097;23;20025;-88
2022/08/31 16:42:18;;;;;;;0.40;0.25;;;30.60;77.70;;;;;;6206792;23;20059;-90
2022/08/31 16:44:45;;;;;;;0.25;0.25;;;30.90;77.50;;;;;;6209478;23;20388;-91
2022/08/31 16:47:14;;;;;;;0.75;0.40;;;31.00;77.60;;;;;;6181114;23;20031;-96
2022/08/31 16:49:42;;;;;;;0.20;0.20;;;31.30;77.50;;;;;;6205788;23;20049;-91
2022/08/31 16:52:16;;;;;;;0.50;0.32;;;31.60;77.10;;;;;;6180352;23;20024;-90
2022/08/31 16:54:49;;;;;;;0.40;0.30;;;31.50;76.80;;;;;;6206783;23;20024;-87
2022/08/31 16:57:19;;;;;;;0.47;0.30;;;31.30;77.00;;;;;;6175696;23;20468;-90
2022/08/31 16:59:47;;;;;;;0.40;0.30;;;31.00;76.90;;;;;;6152255;23;20103;-84
2022/08/31 17:02:14;;;;;;;0.50;0.28;;;30.70;77.10;;;;;;6175588;23;20131;-86
2022/08/31 17:04:42;;;;;;;0.50;0.40;;;30.80;77.00;;;;;;6158391;23;20042;-90
2022/08/31 17:07:24;;;;;;;0.40;0.40;;;30.80;76.60;;;;;;6172269;23;20420;-88
2022/08/31 17:09:56;;;;;;;0.25;0.25;;;30.50;76.60;;;;;;6156380;23;20359;-84
2022/08/31 17:12:25;;;;;;;1.27;0.50;;;30.40;76.70;;;;;;6177786;23;20056;-83
2022/08/31 17:14:52;;;;;;;0.93;0.40;;;30.10;76.20;;;;;;6202243;23;20351;-84
2022/08/31 17:17:21;;;;;;;0.50;0.50;;;29.70;76.50;;;;;;6200768;23;20167;-85
2022/08/31 17:19:48;;;;;;;0.40;0.40;;;29.90;76.40;;;;;;6155761;23;20060;-84
2022/08/31 17:22:16;;;;;;;0.38;0.38;;;30.20;75.70;;;;;;6203457;23;20685;-88
2022/08/31 17:24:53;;;;;;;0.63;0.40;;;29.80;76.40;;;;;;6179031;23;20021;-85
2022/08/31 17:27:20;;;;;;;0.50;0.30;;;29.60;76.10;;;;;;6179286;23;20032;-86
2022/08/31 17:29:50;;;;;;;0.30;0.30;;;29.40;76.30;;;;;;6157456;23;20060;-86
2022/08/31 17:32:19;;;;;;;0.20;0.20;;;29.10;77.00;;;;;;6155811;23;20024;-88
2022/08/31 17:34:50;;;;;;;0.30;0.30;;;28.80;77.60;;;;;;6183705;23;20024;-92
2022/08/31 17:37:23;;;;;;;0.40;0.25;;;28.20;78.60;;;;;;6191057;23;20016;-86
2022/08/31 17:39:51;;;;;;;0.75;0.45;;;27.40;80.20;;;;;;6206474;23;20029;-86
2022/08/31 17:42:19;;;;;;;0.32;0.20;;;26.60;82.20;;;;;;6154314;23;20021;-90
2022/08/31 17:44:49;;;;;;;0.75;0.40;;;25.80;83.30;;;;;;6154398;23;20031;-87
2022/08/31 17:47:16;;;;;;;0.52;0.25;;;25.30;84.50;;;;;;6154885;23;20075;-87
2022/08/31 17:49:43;;;;;;;0.90;0.35;;;24.70;85.90;;;;;;6154348;23;20098;-90
2022/08/31 17:52:12;;;;;;;0.50;0.40;;;24.20;87.10;;;;;;6178625;23;20043;-88
2022/08/31 17:54:41;;;;;;;0.65;0.30;;;23.80;88.60;;;;;;6156223;23;20513;-93
2022/08/31 17:57:13;;;;;;;0.40;0.40;;;23.50;89.50;;;;;;6181277;23;20159;-93
2022/08/31 17:59:42;;;;;;;0.75;0.30;;;23.20;90.10;;;;;;6155950;23;20544;-87
2022/08/31 18:02:12;;;;;;;0.28;0.20;;;23.00;90.40;;;;;;6180876;23;20034;-87
2022/08/31 18:04:39;;;;;;;0.65;0.50;;;22.90;90.70;;;;;;6178531;23;20108;-85
2022/08/31 18:07:07;;;;;;;0.75;0.25;;;22.80;90.80;;;;;;6152029;23;20084;-88
2022/08/31 18:09:37;;;;;;;0.50;0.30;;;22.60;90.90;;;;;;6152931;23;20021;-89
2022/08/31 18:12:06;;;;;;;1.05;0.55;;;22.50;91.30;;;;;;6178144;23;20058;-82
2022/08/31 18:14:34;;;;;;;0.77;0.40;;;22.30;91.60;;;;;;6205387;23;20028;-90
2022/08/31 18:17:02;;;;;;;0.35;0.32;;;22.10;91.80;;;;;;6152504;23;20051;-89
2022/08/31 18:19:31;;;;;;;0.50;0.30;;;22.00;92.00;;;;;;6152139;23;20458;-83
2022/08/31 18:21:58;;;;;;;0.20;0.20;;;21.80;92.20;;;;;;6178410;23;20059;-90
2022/08/31 18:24:26;;;;;;;0.82;0.68;;;21.70;92.20;;;;;;6153834;23;20036;-83
2022/08/31 18:26:53;;;;;;;1.55;0.77;;;21.50;92.50;;;;;;6155585;23;20299;-91
2022/08/31 18:29:21;;;;;;;0.63;0.50;;;21.30;92.50;;;;;;6152820;23;20041;-90
2022/08/31 18:31:52;;;;;;;0.90;0.47;;;21.10;92.30;;;;;;6204689;23;20475;-86
2022/08/31 18:34:21;;;;;;;0.35;0.30;;;20.90;92.20;;;;;;6180777;23;20444;-94
2022/08/31 18:36:49;;;;;;;1.05;0.65;;;20.70;92.40;;;;;;6165914;23;20091;-88
2022/08/31 18:39:21;;;;;;;0.40;0.20;;;20.60;92.40;;;;;;6201957;23;20013;-88
2022/08/31 18:47:38;;;;;;;1.08;0.70;;;20.20;92.60;;;;;;6200804;23;20016;-81
2022/08/31 18:50:06;;;;;;;0.60;0.40;;;20.10;92.60;;;;;;6175033;23;20028;-84
2022/08/31 18:52:39;;;;;;;1.27;0.43;;;20.00;92.70;;;;;;6153086;23;20086;-84
2022/08/31 18:55:06;;;;;;;0.47;0.47;;;20.00;92.80;;;;;;6152532;23;20216;-83
2022/08/31 18:57:33;;;;;;;1.08;0.52;;;19.90;93.10;;;;;;6146390;23;20043;-83
2022/08/31 19:00:13;;;;;;;0.43;0.28;;;19.80;93.20;;;;;;6151028;23;20024;-82
2022/08/31 19:02:41;;;;;;;0.20;0.20;;;19.80;93.40;;;;;;6146602;23;20021;-82
2022/08/31 19:05:10;;;;;;;0.30;0.30;;;19.70;93.50;;;;;;6146791;23;20039;-82
2022/08/31 19:07:39;;;;;;;0.88;0.38;;;19.60;93.70;;;;;;6146223;23;20398;-83
2022/08/31 19:10:09;;;;;;;0.52;0.30;;;19.50;94.10;;;;;;6172006;23;20348;-86
2022/08/31 19:12:41;;;;;;;0.52;0.28;;;19.40;94.20;;;;;;6147810;23;20100;-83
2022/08/31 19:15:10;;;;;;;0.35;0.30;;;19.40;94.50;;;;;;6147631;23;20024;-83
2022/08/31 19:17:38;;;;;;;0.45;0.30;;;19.30;94.80;;;;;;6170774;23;20114;-83
2022/08/31 19:20:06;;;;;;;0.20;0.17;;;19.20;95.00;;;;;;6146567;23;20072;-82
2022/08/31 19:22:36;;;;;;;0.75;0.22;;;19.10;95.30;;;;;;6171246;23;20027;-83
2022/08/31 19:25:04;;;;;;;0.10;0.10;;;19.00;95.30;;;;;;6146266;23;20354;-83
2022/08/31 19:27:32;;;;;;;0.68;0.47;;;19.00;95.30;;;;;;6146145;23;20021;-83
2022/08/31 19:29:59;;;;;;;1.48;0.50;;;18.90;95.30;;;;;;6146180;23;20024;-83
2022/08/31 19:32:26;;;;;;;0.30;0.20;;;18.90;95.30;;;;;;6145481;23;20020;-83
2022/08/31 19:34:54;;;;;;;0.68;0.40;;;18.80;95.20;;;;;;6170740;23;20071;-83
2022/08/31 19:37:21;;;;;;;1.08;0.35;;;18.80;95.50;;;;;;6145991;23;20059;-83
2022/08/31 19:39:48;;;;;;;0.40;0.30;;;18.80;95.50;;;;;;6145606;23;20075;-82
2022/08/31 19:42:16;;;;;;;0.30;0.20;;;18.70;95.50;;;;;;6145116;23;20060;-83
2022/08/31 19:44:45;;;;;;;1.15;0.38;;;18.70;95.70;;;;;;6146982;23;20469;-82
2022/08/31 19:47:33;;;;;;;0.10;0.10;;;18.70;95.90;;;;;;6153480;23;20029;-83
2022/08/31 19:50:00;;;;;;;0.75;0.63;;;18.60;95.90;;;;;;6147753;23;20452;-83
2022/08/31 19:52:27;;;;;;;0.60;0.40;;;18.50;96.10;;;;;;6147218;23;20492;-83
2022/08/31 19:54:54;;;;;;;0.40;0.20;;;18.50;96.20;;;;;;6147536;23;20102;-84
2022/08/31 19:57:21;;;;;;;0.50;0.40;;;18.40;96.40;;;;;;6153020;23;20262;-94
2022/08/31 19:59:48;;;;;;;0.22;0.17;;;18.40;96.70;;;;;;6148101;23;20020;-82
2022/08/31 20:02:15;;;;;;;0.13;0.13;;;18.30;96.70;;;;;;6174999;23;20088;-90
2022/08/31 20:04:44;;;;;;;1.13;0.50;;;18.30;96.90;;;;;;6180137;23;20021;-92
2022/08/31 20:07:12;;;;;;;0.68;0.40;;;18.20;97.20;;;;;;6205345;23;20032;-88
2022/08/31 20:09:39;;;;;;;0.45;0.30;;;18.20;97.40;;;;;;6156946;23;20033;-88
2022/08/31 20:12:07;;;;;;;0.22;0.20;;;18.20;97.70;;;;;;6184397;23;20044;-91
2022/08/31 20:14:34;;;;;;;1.20;0.50;;;18.20;97.90;;;;;;6213775;23;20033;-85
2022/08/31 20:17:02;;;;;;;0.82;0.40;;;18.10;98.00;;;;;;6155981;23;20020;-83
2022/08/31 20:19:29;;;;;;;0.77;0.30;;;18.10;98.20;;;;;;6188194;23;20494;-89
2022/08/31 20:22:05;;;;;;;;;;;18.10;98.30;;;;;;6185690;23;20340;-82
2022/08/31 20:24:35;;;;;;;0.65;0.28;;;18.00;98.50;;;;;;6181079;23;19946;-84
2022/08/31 20:27:02;;;;;;;0.40;0.20;;;18.00;98.50;;;;;;6177164;23;20533;-91
2022/08/31 20:29:37;;;;;;;0.25;0.20;;;18.00;98.60;;;;;;6209363;23;20040;-81
2022/08/31 20:32:03;;;;;;;0.17;0.13;;;17.90;98.80;;;;;;6208432;23;20024;-81
2022/08/31 20:34:32;;;;;;;0.32;0.20;;;17.90;99.00;;;;;;6212480;23;20456;-81
2022/08/31 20:36:59;;;;;;;0.82;0.35;;;17.90;99.00;;;;;;6206199;23;20028;-82
2022/08/31 20:39:29;;;;;;;0.20;0.20;;;17.90;99.10;;;;;;6185932;23;20205;-84
2022/08/31 20:41:57;;;;;;;0.20;0.20;;;17.90;99.30;;;;;;6190642;23;20058;-82
2022/08/31 20:44:28;;;;;;;0.32;0.20;;;17.80;99.60;;;;;;6169614;23;20224;-82
2022/08/31 20:49:46;;;;;;;0.82;0.40;;;17.70;99.90;;;;;;6181304;23;20070;-82